Tiempo atmosférico en la estación meteorológica de Fuente De Cantos, Badajoz (602 m.)



Fecha
DESCASC
Temp. máxima en grados centígrados (hora)
DESCASC
Temp. mínima en grados centígrados (hora)
DESCASC
Temp. media en grados centígrados
DESCASC
Racha de viento máxima en m/sg (hora)
DESCASC
Velocidad máxima media en intervalos de 10 minutos(hora)
DESCASC
Precipitaciones diarias en mm
DESCASC
Precipitaciones de 00:00 a 06:00 en mm
DESCASC
Precipitaciones de 06:00 a 12:00 en mm
DESCASC
Precipitaciones de 12:00 a 18:00 en mm
DESCASC
Precipitaciones de 18:00 a 24:00 en mm
DESCASC
19-05-2019 21.1 (16:40) 7.1 (07:40) 14.1 12.5 (16:00) 8.33 (15:50) 0 0 0 0 0
18-05-2019 18.9 (17:00) 5.4 (07:10) 12.1 14.17 (14:40) 10 (14:40) 0 0 0 0 0
17-05-2019 18.5 (18:10) 5.5 (07:20) 12 13.89 (17:00) 10.28 (10:30) 0 0 0 0 0
16-05-2019 26.2 (15:50) 12 (00:00) 19.1 15.28 (18:30) 11.11 (18:30) 0 0 0 0 0
15-05-2019 32 (17:50) 17.3 (00:00) 24.6 10.28 (17:00) 6.11 (16:30) 0 0 0 0 0
14-05-2019 32.2 (17:30) 14.7 (00:00) 23.5 10 (04:30) 7.78 (04:10) 0 0 0 0 0
13-05-2019 33 (17:30) 18.4 (00:00) 25.7 9.17 (12:40) 6.11 (04:00) 0 0 0 0 0
12-05-2019 31.8 (17:40) 15.6 (00:00) 23.7 11.11 (16:50) 7.22 (10:50) 0 0 0 0 0
11-05-2019 28.7 (18:10) 11.3 (00:00) 20 9.17 (16:50) 6.39 (20:20) 0 0 0 0 0
10-05-2019 24 (17:30) 12.7 (00:00) 18.3 10 (15:00) 6.67 (20:20) 0 0 0 0 0
09-05-2019 21.2 (16:50) 13.8 (00:00) 17.5 10.83 (14:50) 8.33 (17:30) 0 0 0 0 0
08-05-2019 21.1 (17:20) 13.2 (00:00) 17.2 16.11 (18:20) 12.5 (17:30) 0 0 0 0 0
07-05-2019 23.9 (17:10) 9.5 (00:00) 16.7 10.83 (17:40) 7.78 (20:10) 0 0 0 0 0
06-05-2019 23.8 (18:10) 9.8 (00:00) 16.8 14.17 (18:10) 7.22 (19:40) 0 0 0 0 0
05-05-2019 25.1 (18:10) 12.7 (00:00) 18.9 9.72 (17:10) 6.11 (19:00) 0 0 0 0 0
04-05-2019 24.8 (18:10) 11.8 (00:00) 18.3 9.17 (09:40) 6.39 (10:20) 0 0 0 0 0
03-05-2019 25.9 (18:10) 12.9 (00:00) 19.4 12.78 (14:40) 8.89 (14:40) 0 0 0 0 0
02-05-2019 27.6 (16:40) 14.8 (05:30) 21.2 8.89 (11:10) 6.39 (09:10) 0 0 0 0 0
01-05-2019 26.4 (16:10) 15.9 (00:00) 21.1 10.83 (22:20) 8.06 (22:10) 0 0 0 0 0
30-04-2019 26.7 (16:00) 15.7 (00:00) 21.2 8.61 (17:30) 5 (14:50) 0 0 0 0 0
29-04-2019 26.6 (17:20) 13.8 (00:00) 20.2 7.22 (15:10) 4.72 (06:20) 0 0 0 0 0
28-04-2019 25.4 (17:30) 12 (00:00) 18.7 7.22 (16:10) 5.83 (08:20) 0 0 0 0 0
27-04-2019 22.9 (16:50) 7.9 (00:00) 15.4 9.17 (17:00) 5.83 (15:10) 0 0 0 0 0
26-04-2019 16.3 (18:20) 4.6 (00:00) 10.4 8.61 (10:40) 5.56 (10:30) 0 0 0 0 0
25-04-2019 14.2 (16:00) 7.7 (00:00) 10.9 15.83 (00:10) 12.5 (00:20) 2.4 2.2 0.2 0 0
24-04-2019 14.3 (15:50) 4.7 (00:00) 9.5 17.78 (15:30) 13.33 (15:40) 5 0 0.2 4 0.8
23-04-2019 11.5 (00:00) 4.8 (00:00) 8.2 17.78 (19:20) 11.94 (15:20) 6 4.2 0.8 0.2 0.8

Gráficas

Temp. máximas Temp. mínimas Temp. medias Precipitaciones Rachas de viento máximas Velocidades máximas media en intervalos de 10 minutos

Datos horarios

Fecha y hora oficial Temperatura (ºC) Velocidad del viento (km/h) Dirección del viento Racha (km/h) Dirección de racha Precipitación (mm) Presión (hPa) Tendencia (hPa) Humedad (%)
2019-05-22 23:00:00 21.9 20 Sudoeste 26 Sur 0 -- -- 38
2019-05-22 22:00:00 24.1 8 Sudoeste 21 Sudoeste 0 -- -- 33
2019-05-22 21:00:00 26.3 15 Sudoeste 20 Sudoeste 0 -- -- 30
2019-05-22 20:00:00 26.6 6 Sur 17 Sudoeste 0 -- -- 28
2019-05-22 19:00:00 26.7 8 Sudoeste 30 Sur 0 -- -- 29
2019-05-22 18:00:00 28.1 15 Sudoeste 34 Sudoeste 0 -- -- 27
2019-05-22 17:00:00 26.4 9 Sudeste 21 Sudeste 0 -- -- 29
2019-05-22 16:00:00 26.3 10 Sur 26 Sur 0 -- -- 29
2019-05-22 15:00:00 26.1 10 Oeste 33 Oeste 0 -- -- 30
2019-05-22 14:00:00 26 10 Sudeste 24 Sudoeste 0 -- -- 31
2019-05-22 13:00:00 25.2 14 Sudeste 25 Este 0 -- -- 34
2019-05-22 12:00:00 23.5 10 Sudeste 26 Sudeste 0 -- -- 38
2019-05-22 11:00:00 22.1 12 Este 19 Este 0 -- -- 45
2019-05-22 10:00:00 19.8 8 Este 14 Este 0 -- -- 55
2019-05-22 09:00:00 16.5 4 Sur 6 Sur 0 -- -- 69
2019-05-22 08:00:00 14.2 3 Sudeste 4 Sudeste 0 -- -- 77
2019-05-22 07:00:00 12.9 3 Sudoeste 6 Sudoeste 0 -- -- 81
2019-05-22 06:00:00 12.9 5 Sudoeste 7 Sudoeste 0 -- -- 80
2019-05-22 05:00:00 13.1 4 Sudoeste 8 Sudoeste 0 -- -- 79
2019-05-22 04:00:00 13.1 5 Sudoeste 10 Sudoeste 0 -- -- 78
2019-05-22 03:00:00 13.5 8 Oeste 14 Sudoeste 0 -- -- 75
2019-05-22 02:00:00 14.6 10 Oeste 14 Oeste 0 -- -- 69
2019-05-22 01:00:00 15.8 10 Oeste 17 Sudoeste 0 -- -- 60
2019-05-22 00:00:00 17.7 5 Oeste 13 Noroeste 0 -- -- 51
2019-05-21 23:00:00 18.2 11 Noroeste 18 Noroeste 0 -- -- 50
2019-05-21 22:00:00 19.7 15 Noroeste 25 Noroeste 0 -- -- 46
2019-05-21 21:00:00 22.2 19 Noroeste 28 Noroeste 0 -- -- 38
2019-05-21 20:00:00 23.1 22 Noroeste 31 Noroeste 0 -- -- 36
2019-05-21 19:00:00 23.2 17 Oeste 28 Oeste 0 -- -- 34
2019-05-21 18:00:00 22.8 12 Noroeste 22 Noroeste 0 -- -- 34
2019-05-21 17:00:00 24.2 6 Sudeste 25 Noroeste 0 -- -- 32
2019-05-21 16:00:00 23.4 10 Sudoeste 26 Oeste 0 -- -- 32
2019-05-21 15:00:00 22.7 5 Sudoeste 22 Noroeste 0 -- -- 33
2019-05-21 14:00:00 21.1 9 Sudoeste 20 Noroeste 0 -- -- 38
2019-05-21 13:00:00 20.1 10 Oeste 19 Noroeste 0 -- -- 42
2019-05-21 12:00:00 18.4 8 Noroeste 18 Noroeste 0 -- -- 44
2019-05-21 11:00:00 16.4 8 Noroeste 17 Noroeste 0 -- -- 51
2019-05-21 10:00:00 13.9 7 Noroeste 13 Oeste 0 -- -- 61
2019-05-21 09:00:00 11.5 7 Oeste 12 Oeste 0 -- -- 74
2019-05-21 08:00:00 9.5 5 Sudoeste 10 Sudoeste 0 -- -- 79
2019-05-21 07:00:00 9.3 9 Oeste 13 Oeste 0 -- -- 78
2019-05-21 06:00:00 10.5 9 Sudoeste 11 Sudoeste 0 -- -- 72
2019-05-21 05:00:00 11.1 9 Sudoeste 13 Oeste 0 -- -- 70
2019-05-21 04:00:00 11.6 10 Oeste 13 Oeste 0 -- -- 67
2019-05-21 03:00:00 12.3 8 Oeste 17 Oeste 0 -- -- 63
2019-05-21 02:00:00 13 10 Oeste 19 Oeste 0 -- -- 58
2019-05-21 01:00:00 14.4 13 Noroeste 18 Noroeste 0 -- -- 52
2019-05-21 00:00:00 15.3 11 Oeste 19 Noroeste 0 -- -- 44
2019-05-20 23:00:00 17.1 18 Noroeste 26 Noroeste 0 -- -- 41
2019-05-20 22:00:00 18.8 20 Noroeste 35 Oeste 0 -- -- 37
2019-05-20 21:00:00 21 25 Noroeste 32 Noroeste 0 -- -- 31
2019-05-20 20:00:00 21.7 22 Noroeste 31 Noroeste 0 -- -- 28
2019-05-20 19:00:00 23.2 17 Oeste 31 Oeste 0 -- -- 23
2019-05-20 18:00:00 23.2 19 Oeste 36 Oeste 0 -- -- 22
2019-05-20 17:00:00 23.5 18 Oeste 41 Oeste 0 -- -- 23
2019-05-20 16:00:00 22.9 17 Noroeste 28 Oeste 0 -- -- 21
2019-05-20 15:00:00 22.1 13 Noroeste 30 Noroeste 0 -- -- 20
2019-05-20 14:00:00 21.1 10 Noroeste 20 Noroeste 0 -- -- 23
2019-05-20 13:00:00 19.2 10 Noroeste 23 Noroeste 0 -- -- 27
2019-05-20 12:00:00 17.5 9 Oeste 21 Oeste 0 -- -- 31
2019-05-20 11:00:00 15.7 10 Oeste 16 Noroeste 0 -- -- 35
2019-05-20 10:00:00 13.6 8 Oeste 14 Oeste 0 -- -- 42
2019-05-20 09:00:00 10.6 4 Sudoeste 8 Sudoeste 0 -- -- 56
2019-05-20 08:00:00 8.6 7 Sudoeste 9 Oeste 0 -- -- 68
2019-05-20 07:00:00 8.4 4 Oeste 10 Oeste 0 -- -- 69
2019-05-20 06:00:00 9.4 9 Oeste 12 Oeste 0 -- -- 64
2019-05-20 05:00:00 9.7 6 Sudoeste 10 Sudoeste 0 -- -- 68
2019-05-20 04:00:00 10.5 8 Sudoeste 14 Oeste -- -- -- 64
2019-05-20 03:00:00 11.4 9 Oeste 17 Oeste 0 -- -- 61
2019-05-20 02:00:00 12.6 11 Oeste 17 Oeste 0 -- -- 61
2019-05-20 01:00:00 13.9 6 Oeste 10 Noroeste 0 -- -- 58
2019-05-20 00:00:00 14.2 6 Noroeste 12 Noroeste 0 -- -- 56
2019-05-19 23:00:00 15 8 Noroeste 17 Oeste 0 -- -- 53
2019-05-19 22:00:00 16.4 13 Noroeste 29 Noroeste 0 -- -- 48
2019-05-19 21:00:00 18.2 23 Noroeste 35 Noroeste 0 -- -- 42
2019-05-19 20:00:00 19.4 24 Noroeste 44 Noroeste 0 -- -- 38
2019-05-19 19:00:00 20.1 22 Noroeste 37 Noroeste 0 -- -- 35
2019-05-19 18:00:00 20.4 23 Noroeste 42 Oeste 0 -- -- 35
2019-05-19 17:00:00 21 23 Oeste 44 Oeste 0 -- -- 33
2019-05-19 16:00:00 21 27 Noroeste 45 Noroeste 0 -- -- 33
2019-05-19 15:00:00 19.7 26 Noroeste 39 Noroeste 0 -- -- 35
2019-05-19 14:00:00 18.4 15 Oeste 30 Oeste 0 -- -- 38
2019-05-19 13:00:00 16.7 14 Oeste 26 Oeste 0 -- -- 40
2019-05-19 12:00:00 14.9 12 Oeste 23 Oeste 0 -- -- 42
2019-05-19 11:00:00 12.8 15 Oeste 24 Oeste 0 -- -- 54
2019-05-19 10:00:00 10.8 17 Oeste 25 Oeste 0 -- -- 64
2019-05-19 09:00:00 9.1 15 Oeste 22 Oeste 0 -- -- 73
2019-05-19 08:00:00 7.4 12 Oeste 18 Oeste 0 -- -- 81
2019-05-19 07:00:00 7.6 15 Oeste 22 Oeste 0 -- -- 79
2019-05-19 06:00:00 8.5 18 Noroeste 23 Noroeste 0 -- -- 76
2019-05-19 05:00:00 9 14 Oeste 21 Noroeste 0 -- -- 72
2019-05-19 04:00:00 9.5 15 Oeste 21 Oeste 0 -- -- 70
2019-05-19 03:00:00 9.9 15 Oeste 23 Oeste 0 -- -- 67
2019-05-19 02:00:00 10.5 18 Oeste 26 Oeste 0 -- -- 63
2019-05-19 01:00:00 10.3 14 Oeste 20 Noroeste 0 -- -- 60
2019-05-19 00:00:00 11.1 16 Noroeste 26 Noroeste 0 -- -- 56
2019-05-18 23:00:00 12.7 22 Noroeste 29 Noroeste 0 -- -- 51
2019-05-18 22:00:00 13.5 23 Noroeste 39 Noroeste 0 -- -- 48
2019-05-18 21:00:00 15 31 Noroeste 45 Oeste 0 -- -- 44
2019-05-18 20:00:00 16.7 33 Noroeste 48 Noroeste 0 -- -- 37
2019-05-18 19:00:00 17.8 28 Oeste 46 Oeste 0 -- -- 33
2019-05-18 18:00:00 18.4 30 Oeste 46 Oeste 0 -- -- 34
2019-05-18 17:00:00 18.9 31 Noroeste 48 Oeste 0 -- -- 32
2019-05-18 16:00:00 17.8 30 Oeste 50 Noroeste 0 -- -- 36
2019-05-18 15:00:00 17.1 31 Noroeste 51 Noroeste 0 -- -- 36
2019-05-18 14:00:00 15.9 25 Noroeste 44 Noroeste 0 -- -- 36
2019-05-18 13:00:00 15 30 Noroeste 44 Noroeste 0 -- -- 40
2019-05-18 12:00:00 13.4 28 Noroeste 43 Noroeste 0 -- -- 43
2019-05-18 11:00:00 12 26 Noroeste 48 Noroeste 0 -- -- 47
2019-05-18 10:00:00 10.5 30 Noroeste 38 Noroeste 0 -- -- 55
2019-05-18 09:00:00 8.3 17 Noroeste 23 Oeste 0 -- -- 68
2019-05-18 08:00:00 6.1 9 Oeste 15 Oeste 0 -- -- 79
2019-05-18 07:00:00 5.5 12 Oeste 14 Oeste 0 -- -- 81
2019-05-18 06:00:00 6.4 11 Oeste 24 Noroeste 0 -- -- 79
2019-05-18 05:00:00 7.2 13 Noroeste 27 Noroeste 0 -- -- 75
2019-05-18 04:00:00 8.8 18 Noroeste 33 Noroeste 0 -- -- 69
2019-05-18 03:00:00 9.3 19 Noroeste 32 Noroeste 0 -- -- 67
2019-05-18 02:00:00 9.7 18 Noroeste 25 Oeste 0 -- -- 65
2019-05-18 01:00:00 9.7 12 Oeste 28 Oeste 0 -- -- 63
2019-05-18 00:00:00 10.8 17 Oeste 27 Noroeste 0 -- -- 59
2019-05-17 23:00:00 12.2 21 Noroeste 32 Noroeste 0 -- -- 55
2019-05-17 22:00:00 13.7 25 Noroeste 40 Noroeste 0 -- -- 53
2019-05-17 21:00:00 15.9 31 Noroeste 42 Noroeste 0 -- -- 44
2019-05-17 20:00:00 17.6 29 Oeste 46 Noroeste 0 -- -- 40
2019-05-17 19:00:00 18.4 27 Oeste 43 Noroeste 0 -- -- 39
2019-05-17 18:00:00 18.3 28 Oeste 46 Noroeste 0 -- -- 36
2019-05-17 17:00:00 17.5 33 Noroeste 50 Noroeste 0 -- -- 34
2019-05-17 16:00:00 16.9 29 Noroeste 44 Noroeste 0 -- -- 37
2019-05-17 15:00:00 15.8 31 Oeste 42 Noroeste 0 -- -- 39
2019-05-17 14:00:00 15 27 Noroeste 43 Noroeste 0 -- -- 41
2019-05-17 13:00:00 13.9 32 Noroeste 45 Noroeste 0 -- -- 45
2019-05-17 12:00:00 12.8 33 Noroeste 45 Noroeste 0 -- -- 51
2019-05-17 11:00:00 11.8 32 Noroeste 44 Noroeste 0 -- -- 55
2019-05-17 10:00:00 10.3 36 Noroeste 48 Noroeste 0 -- -- 62
2019-05-17 09:00:00 8.6 26 Noroeste 33 Noroeste 0 -- -- 77
2019-05-17 08:00:00 6 8 Sudoeste 14 Oeste 0 -- -- 90
2019-05-17 07:00:00 6 11 Oeste 18 Oeste 0 -- -- 88
2019-05-17 06:00:00 6.3 10 Oeste 23 Oeste 0 -- -- 85
2019-05-17 05:00:00 7.1 20 Oeste 31 Oeste 0 -- -- 81
2019-05-17 04:00:00 7.5 19 Noroeste 31 Oeste 0 -- -- 76
2019-05-17 03:00:00 8.6 23 Noroeste 33 Noroeste 0 -- -- 76
2019-05-17 02:00:00 9.7 24 Oeste 42 Oeste 0 -- -- 73
2019-05-17 01:00:00 10.8 29 Noroeste 48 Noroeste 0 -- -- 71
2019-05-17 00:00:00 12.1 33 Noroeste 45 Oeste 0 -- -- 68
2019-05-16 23:00:00 13.5 36 Oeste 51 Noroeste 0 -- -- 65
2019-05-16 22:00:00 15.5 38 Noroeste 50 Noroeste 0 -- -- 62
2019-05-16 21:00:00 18.4 36 Noroeste 51 Oeste 0 -- -- 51
2019-05-16 20:00:00 21.6 39 Oeste 51 Oeste 0 -- -- 35
2019-05-16 19:00:00 23.4 37 Oeste 55 Oeste 0 -- -- 31
2019-05-16 18:00:00 24.8 40 Oeste 54 Oeste 0 -- -- 29
2019-05-16 17:00:00 26 33 Oeste 50 Oeste 0 -- -- 33
2019-05-16 16:00:00 26 37 Oeste 50 Oeste 0 -- -- 33
2019-05-16 15:00:00 25.4 31 Oeste 45 Oeste 0 -- -- 33
2019-05-16 14:00:00 25 28 Oeste 40 Oeste 0 -- -- 32
2019-05-16 13:00:00 23.2 19 Oeste 38 Oeste 0 -- -- 34
2019-05-16 12:00:00 21.7 20 Oeste 32 Oeste 0 -- -- 38
2019-05-16 11:00:00 18.7 18 Oeste 28 Oeste 0 -- -- 50
2019-05-16 10:00:00 16.6 17 Oeste 23 Oeste 0 -- -- 55
2019-05-16 09:00:00 14.9 13 Sudoeste 15 Sudoeste 0 -- -- 52
2019-05-16 08:00:00 12.3 9 Sudoeste 13 Oeste 0 -- -- 59
2019-05-16 07:00:00 12.3 10 Oeste 14 Oeste 0 -- -- 54
2019-05-16 06:00:00 13.7 11 Oeste 14 Oeste 0 -- -- 50
2019-05-16 05:00:00 15.9 10 Oeste 12 Oeste 0 -- -- 45
2019-05-16 04:00:00 17.7 10 Sudoeste 13 Sudoeste 0 -- -- 43
2019-05-16 03:00:00 18.5 9 Sudoeste 11 Sudoeste 0 -- -- 42
2019-05-16 02:00:00 18.9 8 Sudoeste 16 Oeste 0 -- -- 41
2019-05-16 01:00:00 20.1 9 Sudoeste 17 Oeste 0 -- -- 38
2019-05-16 00:00:00 21.3 13 Oeste 17 Oeste 0 -- -- 34
2019-05-15 23:00:00 23.6 9 Oeste 17 Oeste 0 -- -- 26
2019-05-15 22:00:00 24.9 12 Noroeste 22 Oeste 0 -- -- 26
2019-05-15 21:00:00 28.7 21 Oeste 29 Noroeste 0 -- -- 19
2019-05-15 20:00:00 30.6 21 Noroeste 31 Oeste 0 -- -- 17
2019-05-15 19:00:00 31.6 16 Oeste 37 Oeste 0 -- -- 15
2019-05-15 18:00:00 31.8 22 Oeste 36 Oeste 0 -- -- 15
2019-05-15 17:00:00 31.5 21 Oeste 37 Oeste 0 -- -- 17
2019-05-15 16:00:00 31.1 19 Oeste 35 Noroeste 0 -- -- 19
2019-05-15 15:00:00 30.2 14 Noroeste 32 Oeste 0 -- -- 23
2019-05-15 14:00:00 29.5 18 Noroeste 27 Noroeste 0 -- -- 23
2019-05-15 13:00:00 28 13 Noroeste 21 Oeste 0 -- -- 27
2019-05-15 12:00:00 26.6 14 Oeste 22 Oeste 0 -- -- 30
2019-05-15 11:00:00 24.8 13 Oeste 21 Oeste 0 -- -- 32
2019-05-15 10:00:00 22.8 11 Oeste 14 Oeste 0 -- -- 40
2019-05-15 09:00:00 19.7 6 Sudoeste 11 Sudoeste 0 -- -- 51
2019-05-15 08:00:00 18 8 Sudoeste 10 Sudoeste 0 -- -- 55
2019-05-15 07:00:00 17.4 7 Sudoeste 10 Sudoeste 0 -- -- 55
2019-05-15 06:00:00 17.5 9 Sudoeste 10 Sudoeste 0 -- -- 53
2019-05-15 05:00:00 18.6 7 Oeste 10 Oeste 0 -- -- 48
2019-05-15 04:00:00 19.4 8 Oeste 10 Oeste -- -- -- 46
2019-05-15 03:00:00 20 6 Sudoeste 8 Sudoeste 0 -- -- 44
2019-05-15 02:00:00 21.5 3 Sur -- -- 0 -- -- 38
2019-05-15 01:00:00 21.5 3 Nordeste 12 Sudeste 0 -- -- 34
2019-05-15 00:00:00 22.7 10 Sudeste 16 Sudeste 0 -- -- 37
2019-05-14 23:00:00 23.8 12 Sudeste 15 Este 0 -- -- 31
2019-05-14 22:00:00 25.3 5 Sur 18 Noroeste 0 -- -- 31
2019-05-14 21:00:00 28.7 14 Noroeste 28 Noroeste 0 -- -- 25
2019-05-14 20:00:00 30.4 19 Noroeste 31 Noroeste 0 -- -- 23
2019-05-14 19:00:00 31.1 13 Norte 30 Noroeste 0 -- -- 25
2019-05-14 18:00:00 31.8 13 Noroeste 28 Noroeste 0 -- -- 23
2019-05-14 17:00:00 31.5 12 Norte 22 Noroeste 0 -- -- 22
2019-05-14 16:00:00 31.2 11 Norte 23 Este 0 -- -- 22
2019-05-14 15:00:00 30.4 9 Norte 27 Oeste 0 -- -- 22
2019-05-14 14:00:00 29.5 4 Este 19 Este 0 -- -- 23
2019-05-14 13:00:00 27.3 8 Sudeste 22 Sudeste 0 -- -- 27
2019-05-14 12:00:00 25.1 14 Sudeste 31 Sudeste 0 -- -- 32
2019-05-14 11:00:00 22.5 24 Sudeste 33 Sudeste 0 -- -- 35
2019-05-14 10:00:00 20.7 23 Sudeste 33 Este 0 -- -- 36
2019-05-14 09:00:00 17.3 23 Este 35 Este 0 -- -- 45
2019-05-14 08:00:00 15.5 24 Este 33 Este 0 -- -- 55
2019-05-14 07:00:00 15.1 24 Este 33 Este 0 -- -- 63
2019-05-14 06:00:00 14.9 24 Este 35 Sudeste 0 -- -- 64
2019-05-14 05:00:00 15.9 23 Este 36 Este 0 -- -- 59
2019-05-14 04:00:00 17.6 27 Este 32 Este 0 -- -- 34
2019-05-14 03:00:00 22.1 8 Nordeste 10 Nordeste 0 -- -- 23
2019-05-14 02:00:00 24.8 7 Este 12 Este 0 -- -- 20
2019-05-14 01:00:00 24.7 10 Este 14 Nordeste 0 -- -- 21
2019-05-14 00:00:00 23.5 14 Nordeste 16 Nordeste 0 -- -- 22
2019-05-13 23:00:00 22.1 13 Nordeste 17 Nordeste 0 -- -- 24
2019-05-13 22:00:00 24 13 Nordeste 15 Nordeste 0 -- -- 21
2019-05-13 21:00:00 28.7 14 Nordeste 19 Norte 0 -- -- 18
2019-05-13 20:00:00 31.4 15 Norte 31 Norte 0 -- -- 13
2019-05-13 19:00:00 32.2 11 Norte 26 Norte 0 -- -- 13
2019-05-13 18:00:00 32.8 17 Nordeste 26 Norte 0 -- -- 13
2019-05-13 17:00:00 32.6 13 Nordeste 28 Norte 0 -- -- 12
2019-05-13 16:00:00 32.1 13 Norte 31 Nordeste 0 -- -- 12
2019-05-13 15:00:00 31.6 14 Nordeste 31 Nordeste 0 -- -- 13
2019-05-13 14:00:00 30.5 14 Este 32 Este 0 -- -- 14
2019-05-13 13:00:00 29.9 19 Nordeste 33 Este 0 -- -- 14
2019-05-13 12:00:00 28.4 16 Nordeste 28 Sudeste 0 -- -- 18
2019-05-13 11:00:00 26.3 14 Este 23 Este 0 -- -- 22
2019-05-13 10:00:00 24.4 15 Este 21 Este 0 -- -- 29
2019-05-13 09:00:00 21.1 13 Este 21 Este 0 -- -- 32
2019-05-13 08:00:00 21.2 16 Este 19 Este 0 -- -- 32
2019-05-13 07:00:00 21.3 15 Este 19 Este 0 -- -- 31
2019-05-13 06:00:00 18.7 11 Sudeste 17 Este 0 -- -- 38
2019-05-13 05:00:00 18.7 8 Sudeste 23 Este 0 -- -- 39
2019-05-13 04:00:00 19.9 22 Este 24 Este 0 -- -- 37
2019-05-13 03:00:00 19 17 Este 21 Este 0 -- -- 39
2019-05-13 02:00:00 20.1 13 Este 18 Nordeste 0 -- -- 36
2019-05-13 01:00:00 19.1 15 Nordeste 20 Nordeste 0 -- -- 38
2019-05-13 00:00:00 23.3 15 Este 20 Este 0 -- -- 30
2019-05-12 23:00:00 23.9 17 Este 25 Nordeste 0 -- -- 30
2019-05-12 22:00:00 24.4 19 Este 24 Este 0 -- -- 30
2019-05-12 21:00:00 28.1 20 Nordeste 30 Nordeste 0 -- -- 25
2019-05-12 20:00:00 30.5 24 Nordeste 32 Norte 0 -- -- 23
2019-05-12 19:00:00 31.6 16 Nordeste 27 Nordeste 0 -- -- 23
2019-05-12 18:00:00 31.2 12 Nordeste 29 Norte 0 -- -- 24
2019-05-12 17:00:00 31.5 20 Nordeste 40 Nordeste 0 -- -- 24
2019-05-12 16:00:00 30.9 16 Nordeste 35 Sudeste 0 -- -- 27
2019-05-12 15:00:00 30.3 19 Sudeste 33 Sudeste 0 -- -- 28
2019-05-12 14:00:00 28.9 19 Este 33 Este 0 -- -- 30
2019-05-12 13:00:00 27.5 18 Este 34 Este 0 -- -- 35
2019-05-12 12:00:00 25.9 19 Este 35 Este 0 -- -- 36
2019-05-12 11:00:00 23.7 24 Este 35 Este 0 -- -- 34
2019-05-12 10:00:00 21.7 19 Este 30 Este 0 -- -- 32
2019-05-12 09:00:00 19.1 18 Este 29 Este 0 -- -- 37
2019-05-12 08:00:00 16 23 Este 28 Este 0 -- -- 42
2019-05-12 07:00:00 16.3 23 Este 28 Este 0 -- -- 40
2019-05-12 06:00:00 15.6 21 Este 26 Este 0 -- -- 45
2019-05-12 05:00:00 17.1 23 Este 27 Este 0 -- -- 43
2019-05-12 04:00:00 19.5 16 Este 20 Este 0 -- -- 35
2019-05-12 03:00:00 19.3 13 Este 15 Este 0 -- -- 34
2019-05-12 02:00:00 19 8 Nordeste 12 Nordeste 0 -- -- 33
2019-05-12 01:00:00 18.1 10 Nordeste 14 Nordeste 0 -- -- 33
2019-05-12 00:00:00 19 13 Nordeste 17 Nordeste 0 -- -- 33
2019-05-11 23:00:00 19.8 17 Nordeste 19 Nordeste 0 -- -- 32
2019-05-11 22:00:00 21.2 14 Norte 18 Norte 0 -- -- 30
2019-05-11 21:00:00 25.5 16 Norte 28 Norte 0 -- -- 23
2019-05-11 20:00:00 27.8 18 Norte 30 Norte 0 -- -- 20
2019-05-11 19:00:00 28.3 18 Norte 32 Norte 0 -- -- 26
2019-05-11 18:00:00 28.4 17 Norte 29 Norte 0 -- -- 28
2019-05-11 17:00:00 28.2 19 Norte 33 Norte 0 -- -- 31
2019-05-11 16:00:00 27.5 17 Norte 26 Norte 0 -- -- 29
2019-05-11 15:00:00 26.3 14 Norte 28 Norte 0 -- -- 28
2019-05-11 14:00:00 25.4 13 Norte 32 Norte 0 -- -- 27
2019-05-11 13:00:00 24.4 15 Norte 23 Norte 0 -- -- 26
2019-05-11 12:00:00 22.9 10 Norte 21 Nordeste 0 -- -- 34
2019-05-11 11:00:00 20.5 8 Nordeste 14 Nordeste 0 -- -- 35
2019-05-11 10:00:00 17.5 6 Norte 11 Nordeste 0 -- -- 55
2019-05-11 09:00:00 15 2 Sudeste 5 Sudeste 0 -- -- 73
2019-05-11 08:00:00 12.9 0 Calma 4 Sur 0 -- -- 80
2019-05-11 07:00:00 11.9 2 Noroeste 8 Noroeste 0 -- -- 84
2019-05-11 06:00:00 11.3 5 Noroeste 10 Noroeste 0 -- -- 86
2019-05-11 05:00:00 12.6 6 Noroeste 9 Noroeste 0 -- -- 84
2019-05-11 04:00:00 12.9 3 Oeste 9 Oeste 0 -- -- 88
2019-05-11 03:00:00 13.5 5 Noroeste 8 Noroeste 0 -- -- 86
2019-05-11 02:00:00 14.3 5 Oeste 9 Oeste 0 -- -- 84
2019-05-11 01:00:00 14.9 5 Noroeste 10 Oeste 0 -- -- 82
2019-05-11 00:00:00 16.2 6 Oeste 10 Noroeste 0 -- -- 78
2019-05-10 23:00:00 16.6 8 Noroeste 17 Noroeste 0 -- -- 75
2019-05-10 22:00:00 18 14 Noroeste 26 Noroeste 0 -- -- 70
2019-05-10 21:00:00 20.2 23 Noroeste 31 Noroeste 0 -- -- 59
2019-05-10 20:00:00 21.9 20 Oeste 29 Noroeste 0 -- -- 55
2019-05-10 19:00:00 22.8 21 Oeste 33 Noroeste 0 -- -- 53
2019-05-10 18:00:00 23.4 18 Noroeste 35 Oeste 0 -- -- 51
2019-05-10 17:00:00 23.6 19 Oeste 33 Oeste 0 -- -- 50
2019-05-10 16:00:00 23 12 Oeste 30 Noroeste 0 -- -- 50
2019-05-10 15:00:00 22.8 15 Oeste 36 Oeste 0 -- -- 50
2019-05-10 14:00:00 21.6 11 Noroeste 23 Noroeste 0 -- -- 52
2019-05-10 13:00:00 20.6 11 Noroeste 22 Oeste 0 -- -- 56
2019-05-10 12:00:00 18.5 9 Noroeste 20 Noroeste 0 -- -- 64
2019-05-10 11:00:00 17.9 8 Noroeste 14 Oeste 0 -- -- 69
2019-05-10 10:00:00 15.8 2 Oeste 6 Oeste 0 -- -- 76
2019-05-10 09:00:00 13.7 6 Sudeste 9 Sudeste 0 -- -- 85
2019-05-10 08:00:00 12.9 5 Sur 14 Noroeste 0 -- -- 86
2019-05-10 07:00:00 12.9 9 Noroeste 17 Noroeste 0 -- -- 87
2019-05-10 06:00:00 13 8 Oeste 15 Oeste 0 -- -- 86
2019-05-10 05:00:00 12.7 10 Oeste 17 Oeste 0 -- -- 86
2019-05-10 04:00:00 13.2 12 Oeste 19 Oeste 0 -- -- 84
2019-05-10 03:00:00 13.9 10 Oeste 21 Oeste 0 -- -- 87
2019-05-10 02:00:00 14.2 13 Oeste 21 Oeste 0 -- -- 88
2019-05-10 01:00:00 14.7 15 Oeste 21 Oeste 0 -- -- 87
2019-05-10 00:00:00 14.6 9 Noroeste 22 Oeste 0 -- -- 90
2019-05-09 23:00:00 15.6 16 Oeste 22 Oeste 0 -- -- 85
2019-05-09 22:00:00 16.7 16 Oeste 27 Oeste 0 -- -- 81
2019-05-09 21:00:00 18.1 20 Oeste 30 Oeste 0 -- -- 75
2019-05-09 20:00:00 19.4 21 Sudoeste 32 Oeste 0 -- -- 70
2019-05-09 19:00:00 19.8 23 Oeste 31 Oeste 0 -- -- 69
2019-05-09 18:00:00 20.3 23 Oeste 39 Sudoeste 0 -- -- 67
2019-05-09 17:00:00 21.1 26 Oeste 36 Oeste 0 -- -- 61
2019-05-09 16:00:00 21 26 Oeste 38 Oeste 0 -- -- 62
2019-05-09 15:00:00 19.9 23 Oeste 39 Oeste 0 -- -- 69
2019-05-09 14:00:00 20.4 21 Oeste 31 Oeste 0 -- -- 65
2019-05-09 13:00:00 19.5 18 Oeste 33 Oeste 0 -- -- 67
2019-05-09 12:00:00 17.8 17 Sudoeste 28 Sudoeste 0 -- -- 76
2019-05-09 11:00:00 16.5 25 Oeste 31 Sudoeste 0 -- -- 82
2019-05-09 10:00:00 15.4 24 Sudoeste 32 Sudoeste 0 -- -- 87
2019-05-09 09:00:00 14.9 20 Sudoeste 26 Sudoeste 0 -- -- 92
2019-05-09 08:00:00 14.2 17 Sudoeste 22 Oeste 0 -- -- 93
2019-05-09 07:00:00 14 15 Sudoeste 24 Sudoeste 0 -- -- 95
2019-05-09 06:00:00 13.8 17 Sudoeste 25 Sudoeste 0 -- -- 96
2019-05-09 05:00:00 13.8 18 Oeste 28 Sudoeste 0 -- -- 95
2019-05-09 04:00:00 14.1 23 Oeste 29 Sudoeste 0 -- -- 93
2019-05-09 03:00:00 14.2 22 Sudoeste 29 Sudoeste 0 -- -- 93
2019-05-09 02:00:00 14 22 Sudoeste 32 Sudoeste 0 -- -- 93
2019-05-09 01:00:00 14.6 22 Sudoeste 29 Oeste 0 -- -- 89
2019-05-09 00:00:00 14.8 24 Oeste 34 Sudoeste 0 -- -- 89
2019-05-08 23:00:00 15.3 28 Oeste 37 Oeste 0 -- -- 86
2019-05-08 22:00:00 15.6 32 Oeste 42 Oeste 0 -- -- 84
2019-05-08 21:00:00 16.7 31 Oeste 49 Oeste 0 -- -- 76
2019-05-08 20:00:00 17.6 36 Oeste 49 Oeste 0 -- -- 72
2019-05-08 19:00:00 18.9 38 Oeste 58 Sudoeste 0 -- -- 67
2019-05-08 18:00:00 20.5 40 Oeste 56 Oeste 0 -- -- 58
2019-05-08 17:00:00 20.8 40 Oeste 53 Oeste 0 -- -- 54
2019-05-08 16:00:00 20.2 34 Sudoeste 49 Oeste 0 -- -- 56
2019-05-08 15:00:00 19.8 32 Sudoeste 44 Oeste 0 -- -- 56
2019-05-08 14:00:00 19.6 33 Sudoeste 43 Sudoeste 0 -- -- 56
2019-05-08 13:00:00 18.3 35 Sudoeste 43 Sudoeste 0 -- -- 61
2019-05-08 12:00:00 16.4 29 Sudoeste 39 Oeste 0 -- -- 69
2019-05-08 11:00:00 15.3 29 Sudoeste 37 Sudoeste 0 -- -- 79
2019-05-08 10:00:00 14.3 26 Sudoeste 33 Sudoeste 0 -- -- 86
2019-05-08 09:00:00 13.9 23 Sudoeste 29 Oeste 0 -- -- 88
2019-05-08 08:00:00 13.5 19 Sudoeste 29 Sudoeste 0 -- -- 88
2019-05-08 07:00:00 13.4 14 Sudoeste 24 Sudoeste 0 -- -- 86
2019-05-08 06:00:00 13.2 17 Sudoeste 26 Oeste 0 -- -- 89
2019-05-08 05:00:00 13.3 17 Sudoeste 25 Oeste 0 -- -- 88
2019-05-08 04:00:00 13.2 14 Sudoeste 25 Oeste 0 -- -- 88
2019-05-08 03:00:00 13.8 20 Oeste 28 Oeste 0 -- -- 86
2019-05-08 02:00:00 14.3 22 Oeste 28 Oeste 0 -- -- 85
2019-05-08 01:00:00 14.8 14 Sudoeste 19 Sudoeste 0 -- -- 82
2019-05-08 00:00:00 15.4 13 Oeste 21 Oeste 0 -- -- 79
2019-05-07 23:00:00 16.3 18 Oeste 26 Oeste 0 -- -- 75
2019-05-07 22:00:00 17 19 Oeste 31 Oeste 0 -- -- 71
2019-05-07 21:00:00 18.2 23 Oeste 38 Oeste 0 -- -- 65
2019-05-07 20:00:00 19.2 27 Oeste 35 Oeste 0 -- -- 63
2019-05-07 19:00:00 21.5 27 Oeste 37 Oeste 0 -- -- 54
2019-05-07 18:00:00 22.7 25 Oeste 39 Noroeste 0 -- -- 51
2019-05-07 17:00:00 23.4 23 Oeste 35 Oeste 0 -- -- 48
2019-05-07 16:00:00 22.7 9 Oeste 28 Oeste 0 -- -- 50
2019-05-07 15:00:00 22 14 Oeste 30 Oeste 0 -- -- 51
2019-05-07 14:00:00 20.6 13 Noroeste 25 Noroeste 0 -- -- 56
2019-05-07 13:00:00 19 14 Noroeste 23 Noroeste 0 -- -- 57
2019-05-07 12:00:00 18.2 5 Oeste 17 Oeste 0 -- -- 57
2019-05-07 11:00:00 15.9 6 Noroeste 13 Noroeste 0 -- -- 66
2019-05-07 10:00:00 13.8 4 Sudoeste 9 Sudoeste 0 -- -- 75
2019-05-07 09:00:00 12.1 4 Sudoeste 9 Sudeste 0 -- -- 83
2019-05-07 08:00:00 9.9 5 Sudeste 8 Sudoeste 0 -- -- 89
2019-05-07 07:00:00 9.8 6 Sudoeste 9 Sudoeste 0 -- -- 90
2019-05-07 06:00:00 9.7 4 Sudoeste 9 Sur 0 -- -- 91
2019-05-07 05:00:00 9.9 5 Sur 10 Sudoeste 0 -- -- 89
2019-05-07 04:00:00 10.2 9 Sudoeste 16 Oeste 0 -- -- 86
2019-05-07 03:00:00 11 8 Sudoeste 14 Sudoeste 0 -- -- 79
2019-05-07 02:00:00 12.3 6 Sudoeste 8 Sudoeste 0 -- -- 73
2019-05-07 01:00:00 12.9 5 Sudoeste 12 Sudoeste 0 -- -- 72
2019-05-07 00:00:00 13.5 6 Sudoeste 15 Oeste 0 -- -- 70
2019-05-06 23:00:00 14.6 13 Oeste 14 Oeste 0 -- -- 65
2019-05-06 22:00:00 15.8 12 Oeste 24 Oeste 0 -- -- 62
2019-05-06 21:00:00 18.1 21 Oeste 32 Oeste 0 -- -- 58
2019-05-06 20:00:00 20.3 24 Oeste 34 Oeste 0 -- -- 55
2019-05-06 19:00:00 23.1 19 Sudoeste 51 Oeste 0 -- -- 46
2019-05-06 18:00:00 23.4 17 Sudoeste 36 Sudoeste 0 -- -- 40
2019-05-06 17:00:00 22.7 19 Oeste 34 Oeste 0 -- -- 49
2019-05-06 16:00:00 22 14 Oeste 33 Oeste 0 -- -- 51
2019-05-06 15:00:00 22.1 17 Oeste 34 Oeste 0 -- -- 46
2019-05-06 14:00:00 21.8 18 Oeste 31 Oeste 0 -- -- 48
2019-05-06 13:00:00 20.3 9 Oeste 22 Oeste 0 -- -- 50
2019-05-06 12:00:00 18 6 Oeste 13 Oeste 0 -- -- 62
2019-05-06 11:00:00 13.8 3 Sur 8 Sur 0 -- -- 92
2019-05-06 10:00:00 10.4 5 Sudoeste 10 Oeste 0 -- -- 97
2019-05-06 09:00:00 9.9 6 Oeste 14 Oeste 0 -- -- 97
2019-05-06 08:00:00 9.9 10 Oeste 15 Oeste 0 -- -- 96
2019-05-06 07:00:00 10 12 Oeste 17 Oeste 0 -- -- 96
2019-05-06 06:00:00 9.9 13 Oeste 17 Oeste 0 -- -- 94
2019-05-06 05:00:00 10.6 8 Oeste 14 Oeste 0 -- -- 91
2019-05-06 04:00:00 12 10 Oeste 13 Oeste 0 -- -- 88
2019-05-06 03:00:00 13.1 12 Oeste 16 Oeste 0 -- -- 85
2019-05-06 02:00:00 14.3 12 Sudoeste 19 Oeste 0 -- -- 81
2019-05-06 01:00:00 15.4 14 Oeste 22 Oeste 0 -- -- 77
2019-05-06 00:00:00 16.6 14 Oeste 21 Oeste 0 -- -- 73
2019-05-05 23:00:00 17.7 11 Sudoeste 21 Oeste 0 -- -- 69
2019-05-05 22:00:00 18.9 11 Oeste 23 Oeste 0 -- -- 52
2019-05-05 21:00:00 21.6 19 Oeste 29 Oeste 0 -- -- 45
2019-05-05 20:00:00 22.9 21 Oeste 29 Oeste 0 -- -- 45
2019-05-05 19:00:00 24.4 22 Oeste 33 Oeste 0 -- -- 40
2019-05-05 18:00:00 24.5 18 Oeste 35 Oeste 0 -- -- 37
2019-05-05 17:00:00 24.9 19 Oeste 33 Oeste 0 -- -- 37
2019-05-05 16:00:00 24.6 13 Oeste 33 Oeste 0 -- -- 36
2019-05-05 15:00:00 24.3 15 Oeste 35 Oeste 0 -- -- 37
2019-05-05 14:00:00 24 13 Oeste 28 Oeste 0 -- -- 37
2019-05-05 13:00:00 23.2 14 Noroeste 23 Noroeste 0 -- -- 36
2019-05-05 12:00:00 21.5 4 Sur 17 Noroeste 0 -- -- 47
2019-05-05 11:00:00 19.1 5 Oeste 10 Oeste 0 -- -- 55
2019-05-05 10:00:00 16.7 4 Sudoeste 8 Sudoeste 0 -- -- 62
2019-05-05 09:00:00 14.9 0 Calma 6 Sur 0 -- -- 74
2019-05-05 08:00:00 12.9 5 Sur 6 Sur 0 -- -- 78
2019-05-05 07:00:00 13.4 5 Oeste 9 Sudoeste 0 -- -- 78
2019-05-05 06:00:00 12.9 8 Sudoeste 10 Sudoeste 0 -- -- 84
2019-05-05 05:00:00 13 8 Sudoeste 10 Sudoeste 0 -- -- 87
2019-05-05 04:00:00 13.3 9 Sudoeste 13 Oeste 0 -- -- 85
2019-05-05 03:00:00 14.1 9 Oeste 11 Oeste 0 -- -- 83
2019-05-05 02:00:00 14.7 9 Sudoeste 11 Sudoeste 0 -- -- 81
2019-05-05 01:00:00 15.3 5 Sudoeste 12 Sudeste 0 -- -- 79
2019-05-05 00:00:00 15.9 10 Sudeste 13 Sudeste 0 -- -- 77
2019-05-04 23:00:00 18 3 Noroeste 13 Sudoeste 0 -- -- 69
2019-05-04 22:00:00 19.5 13 Sudoeste 20 Oeste 0 -- -- 62
2019-05-04 21:00:00 22.2 17 Oeste 29 Oeste 0 -- -- 43
2019-05-04 20:00:00 24.2 18 Oeste 31 Sudoeste 0 -- -- 37
2019-05-04 19:00:00 24.5 17 Noroeste 29 Oeste 0 -- -- 36
2019-05-04 18:00:00 24.7 14 Oeste 29 Oeste 0 -- -- 34
2019-05-04 17:00:00 23.2 12 Noroeste 22 Noroeste 0 -- -- 39
2019-05-04 16:00:00 23.4 11 Este 20 Este 0 -- -- 46
2019-05-04 15:00:00 23.1 8 Sudoeste 23 Sur 0 -- -- 47
2019-05-04 14:00:00 21.6 8 Sudoeste 27 Nordeste 0 -- -- 49
2019-05-04 13:00:00 20.8 12 Este 24 Este 0 -- -- 53
2019-05-04 12:00:00 19.2 9 Sudeste 27 Sudeste 0 -- -- 59
2019-05-04 11:00:00 16.5 19 Sudeste 32 Sudeste 0 -- -- 73
2019-05-04 10:00:00 13.8 21 Este 33 Este 0 -- -- 81
2019-05-04 09:00:00 11.8 18 Este 28 Este 0 -- -- 72
2019-05-04 08:00:00 13.2 19 Este 30 Este 0 -- -- 62
2019-05-04 07:00:00 13.7 20 Este 28 Este 0 -- -- 56
2019-05-04 06:00:00 12.7 15 Este 22 Este 0 -- -- 56
2019-05-04 05:00:00 14.4 7 Este 12 Este 0 -- -- 49
2019-05-04 04:00:00 15 3 Norte 4 Nordeste 0 -- -- 49
2019-05-04 03:00:00 15.3 3 Norte 6 Norte 0 -- -- 48
2019-05-04 02:00:00 16.3 3 Este 14 Norte 0 -- -- 45
2019-05-04 01:00:00 16.2 9 Norte 15 Norte 0 -- -- 47
2019-05-04 00:00:00 17.4 4 Noroeste 19 Norte 0 -- -- 46
2019-05-03 23:00:00 18 15 Norte 19 Norte 0 -- -- 45
2019-05-03 22:00:00 19.4 10 Noroeste 22 Noroeste 0 -- -- 47
2019-05-03 21:00:00 22.8 16 Noroeste 24 Noroeste 0 -- -- 40
2019-05-03 20:00:00 23.6 23 Noroeste 39 Oeste 0 -- -- 33
2019-05-03 19:00:00 25.6 32 Oeste 41 Noroeste 0 -- -- 28
2019-05-03 18:00:00 25 26 Oeste 44 Oeste 0 -- -- 35
2019-05-03 17:00:00 25.3 23 Noroeste 44 Noroeste 0 -- -- 35
2019-05-03 16:00:00 25.5 26 Oeste 46 Noroeste 0 -- -- 33
2019-05-03 15:00:00 25 24 Oeste 46 Noroeste 0 -- -- 30
2019-05-03 14:00:00 24.5 29 Oeste 46 Noroeste 0 -- -- 36
2019-05-03 13:00:00 23.6 21 Oeste 30 Oeste 0 -- -- 40
2019-05-03 12:00:00 22.2 19 Oeste 27 Oeste 0 -- -- 42
2019-05-03 11:00:00 20.1 16 Oeste 24 Oeste 0 -- -- 45
2019-05-03 10:00:00 17.1 12 Oeste 17 Oeste 0 -- -- 56
2019-05-03 09:00:00 14.5 8 Sudoeste 14 Oeste 0 -- -- 68
2019-05-03 08:00:00 13.3 10 Oeste 12 Oeste 0 -- -- 71
2019-05-03 07:00:00 13 8 Oeste 15 Oeste 0 -- -- 73
2019-05-03 06:00:00 13.3 12 Oeste 13 Oeste 0 -- -- 74
2019-05-03 05:00:00 13.9 12 Sudoeste 14 Oeste 0 -- -- 73
2019-05-03 04:00:00 14.6 9 Oeste 12 Oeste 0 -- -- 70
2019-05-03 03:00:00 16 9 Oeste 12 Oeste 0 -- -- 66
2019-05-03 02:00:00 17.7 9 Oeste 12 Sudoeste 0 -- -- 59
2019-05-03 01:00:00 19.2 0 Calma 9 Sudoeste 0 -- -- 53
2019-05-03 00:00:00 19.5 5 Oeste 19 Norte 0 -- -- 54
2019-05-02 23:00:00 21.1 4 Sur 6 Sur 0 -- -- 47
2019-05-02 22:00:00 22.4 2 Sudoeste 7 Sur 0 -- -- 42
2019-05-02 21:00:00 23.4 4 Sur 15 Norte 0 -- -- 42
2019-05-02 20:00:00 26.2 17 Norte 24 Norte 0 -- -- 34
2019-05-02 19:00:00 27.1 13 Norte 28 Nordeste 0 -- -- 31
2019-05-02 18:00:00 27.2 21 Nordeste 30 Nordeste 0 -- -- 32
2019-05-02 17:00:00 27.3 17 Nordeste 32 Nordeste 0 -- -- 33
2019-05-02 16:00:00 26.6 12 Nordeste 28 Nordeste 0 -- -- 34
2019-05-02 15:00:00 26.8 14 Este 30 Nordeste 0 -- -- 33
2019-05-02 14:00:00 26 12 Nordeste 29 Nordeste 0 -- -- 38
2019-05-02 13:00:00 25.2 12 Este 27 Sudeste 0 -- -- 38
2019-05-02 12:00:00 23.2 19 Sudeste 32 Sudeste 0 -- -- 42
2019-05-02 11:00:00 21.5 19 Sudeste 27 Sudeste 0 -- -- 46
2019-05-02 10:00:00 19.7 16 Sudeste 30 Sudeste 0 -- -- 52
2019-05-02 09:00:00 17.6 22 Sudeste 27 Este 0 -- -- 58
2019-05-02 08:00:00 15.8 22 Sudeste 29 Este 0 -- -- 67
2019-05-02 07:00:00 16.3 21 Este 24 Este 0 -- -- 62
2019-05-02 06:00:00 16.8 18 Este 23 Este 0 -- -- 60
2019-05-02 05:00:00 16.6 11 Este 16 Sudeste 0 -- -- 66
2019-05-02 04:00:00 16.1 9 Sudeste 12 Sudeste 0 -- -- 67
2019-05-02 03:00:00 16.2 6 Sudeste 10 Sudeste 0 -- -- 67
2019-05-02 02:00:00 16.8 2 Sudoeste 6 Sudoeste 0 -- -- 66
2019-05-02 01:00:00 16.7 4 Noroeste 12 Oeste 0 -- -- 62
2019-05-02 00:00:00 16.2 10 Oeste 14 Este 0 -- -- 72
2019-05-01 23:00:00 19.2 15 Este 39 Nordeste 0 -- -- 48
2019-05-01 22:00:00 18.8 23 Nordeste 35 Nordeste 0 -- -- 59
2019-05-01 21:00:00 22.4 11 Sur 18 Sur 0 -- -- 52
2019-05-01 20:00:00 22.8 12 Sur 28 Sur 0 -- -- 51
2019-05-01 19:00:00 24.2 14 Sur 21 Sudeste 0 -- -- 43
2019-05-01 18:00:00 24.5 9 Sudeste 17 Sudeste 0 -- -- 42
2019-05-01 17:00:00 25 10 Noroeste 21 Norte 0 -- -- 40
2019-05-01 16:00:00 26.1 7 Nordeste 14 Este 0 -- -- 36
2019-05-01 15:00:00 24.9 6 Norte 21 Este 0 -- -- 39
2019-05-01 14:00:00 25.7 6 Nordeste 12 Oeste 0 -- -- 40
2019-05-01 13:00:00 23.4 8 Noroeste 14 Noroeste 0 -- -- 42
2019-05-01 12:00:00 24.6 3 Nordeste 16 Norte 0 -- -- 42
2019-05-01 11:00:00 23.2 8 Nordeste 13 Este 0 -- -- 44
2019-05-01 10:00:00 21.1 3 Este 6 Nordeste 0 -- -- 53
2019-05-01 09:00:00 18.5 5 Sudeste 6 Sudeste 0 -- -- 63
2019-05-01 08:00:00 16.1 4 Sudeste 5 Sudeste 0 -- -- 68
2019-05-01 07:00:00 16.4 2 Sudoeste 4 Sur 0 -- -- 67
2019-05-01 06:00:00 16.5 3 Sudoeste 7 Sudoeste 0 -- -- 63
2019-05-01 05:00:00 16.6 4 Sudoeste 6 Sur 0 -- -- 59
2019-05-01 04:00:00 16.6 4 Sudoeste 6 Sur 0 -- -- 58
2019-05-01 03:00:00 16.5 2 Sur 7 Sudoeste 0 -- -- 60
2019-05-01 02:00:00 17.1 5 Sudoeste 8 Sudoeste 0 -- -- 59
2019-05-01 01:00:00 17.7 6 Sudoeste 9 Sudoeste 0 -- -- 58
2019-05-01 00:00:00 18.4 6 Sudoeste 9 Sudoeste 0 -- -- 57
2019-04-30 23:00:00 19.8 4 Noroeste 9 Oeste 0 -- -- 53
2019-04-30 22:00:00 20.1 8 Noroeste 15 Noroeste 0 -- -- 53
2019-04-30 21:00:00 22.2 13 Noroeste 22 Noroeste 0 -- -- 49
2019-04-30 20:00:00 24.3 17 Noroeste 22 Noroeste 0 -- -- 43
2019-04-30 19:00:00 25.5 18 Noroeste 27 Noroeste 0 -- -- 39
2019-04-30 18:00:00 26 13 Oeste 31 Noroeste 0 -- -- 38
2019-04-30 17:00:00 26.5 11 Oeste 27 Noroeste 0 -- -- 36
2019-04-30 16:00:00 26.7 13 Noroeste 24 Norte 0 -- -- 34
2019-04-30 15:00:00 25.5 10 Oeste 23 Oeste 0 -- -- 35
2019-04-30 14:00:00 24.7 11 Oeste 24 Oeste 0 -- -- 41
2019-04-30 13:00:00 24.8 9 Norte 17 Norte 0 -- -- 43
2019-04-30 12:00:00 23.4 11 Noroeste 18 Noroeste 0 -- -- 45
2019-04-30 11:00:00 21.4 5 Noroeste 8 Oeste 0 -- -- 56
2019-04-30 10:00:00 19.8 3 Noroeste 5 Noroeste 0 -- -- 58
2019-04-30 09:00:00 18.7 2 Sudoeste 6 Sudoeste 0 -- -- 60
2019-04-30 08:00:00 16.6 4 Sudoeste 7 Sudoeste 0 -- -- 65
2019-04-30 07:00:00 16.1 5 Sur 7 Sudoeste 0 -- -- 68
2019-04-30 06:00:00 15.9 5 Sur 6 Sur 0 -- -- 70
2019-04-30 05:00:00 15.8 5 Sur 9 Sudoeste 0 -- -- 69
2019-04-30 04:00:00 16.5 4 Sudoeste 6 Sudoeste 0 -- -- 65
2019-04-30 03:00:00 16.9 4 Sudoeste 6 Sudoeste 0 -- -- 62
2019-04-30 02:00:00 17.9 5 Sudoeste 8 Sudoeste 0 -- -- 56
2019-04-30 01:00:00 18.7 4 Sudoeste 9 Oeste 0 -- -- 54
2019-04-30 00:00:00 19.2 4 Sur 5 Sur 0 -- -- 52
2019-04-29 23:00:00 19.2 11 Noroeste 19 Noroeste 0 -- -- 53
2019-04-29 22:00:00 20.5 10 Noroeste 13 Noroeste 0 -- -- 51
2019-04-29 21:00:00 22.4 8 Noroeste 17 Noroeste 0 -- -- 49
2019-04-29 20:00:00 24.8 15 Noroeste 21 Noroeste 0 -- -- 37
2019-04-29 19:00:00 25.9 8 Noroeste 19 Oeste 0 -- -- 33
2019-04-29 18:00:00 26.3 6 Noroeste 21 Noroeste 0 -- -- 32
2019-04-29 17:00:00 26 8 Oeste 20 Noroeste 0 -- -- 32
2019-04-29 16:00:00 25.3 10 Noroeste 26 Este 0 -- -- 33
2019-04-29 15:00:00 25.2 8 Sudeste 19 Este 0 -- -- 35
2019-04-29 14:00:00 24.6 10 Este 24 Este 0 -- -- 35
2019-04-29 13:00:00 24.4 11 Este 21 Este 0 -- -- 38
2019-04-29 12:00:00 22.6 11 Este 20 Este 0 -- -- 39
2019-04-29 11:00:00 20.1 13 Este 21 Este 0 -- -- 46
2019-04-29 10:00:00 19.1 12 Este 16 Sudeste 0 -- -- 47
2019-04-29 09:00:00 16.1 10 Sudeste 15 Sudeste 0 -- -- 54
2019-04-29 08:00:00 15.6 11 Sudeste 18 Sudeste 0 -- -- 48
2019-04-29 07:00:00 14.2 15 Sudeste 19 Este 0 -- -- 58
2019-04-29 06:00:00 15.9 8 Este 13 Sudeste 0 -- -- 52
2019-04-29 05:00:00 15.9 10 Sudeste 17 Este 0 -- -- 57
2019-04-29 04:00:00 16.2 14 Este 18 Este 0 -- -- 59
2019-04-29 03:00:00 15.1 6 Nordeste 9 Este 0 -- -- 65
2019-04-29 02:00:00 16.3 2 Este 9 Noroeste 0 -- -- 59
2019-04-29 01:00:00 17.5 6 Sudeste 13 Sudeste 0 -- -- 57
2019-04-29 00:00:00 19.1 12 Sudeste 14 Sudeste 0 -- -- 52
2019-04-28 23:00:00 19.8 14 Este 19 Este 0 -- -- 46
2019-04-28 22:00:00 18.2 12 Nordeste 18 Norte 0 -- -- 54
2019-04-28 21:00:00 20.4 13 Norte 20 Norte 0 -- -- 49
2019-04-28 20:00:00 23.4 14 Norte 21 Norte 0 -- -- 40
2019-04-28 19:00:00 24.7 8 Norte 24 Nordeste 0 -- -- 35
2019-04-28 18:00:00 24.6 6 Noroeste 22 Este 0 -- -- 33
2019-04-28 17:00:00 25.2 9 Nordeste 26 Nordeste 0 -- -- 34
2019-04-28 16:00:00 24.9 10 Nordeste 24 Nordeste 0 -- -- 34
2019-04-28 15:00:00 24.2 9 Nordeste 22 Nordeste 0 -- -- 38
2019-04-28 14:00:00 23.1 6 Norte 25 Nordeste 0 -- -- 43
2019-04-28 13:00:00 22.2 14 Este 25 Este 0 -- -- 42
2019-04-28 12:00:00 20.4 15 Este 24 Este 0 -- -- 46
2019-04-28 11:00:00 18.7 14 Este 21 Este 0 -- -- 49
2019-04-28 10:00:00 16.4 11 Este 18 Este 0 -- -- 55
2019-04-28 09:00:00 13.8 15 Este 24 Este 0 -- -- 62
2019-04-28 08:00:00 12.6 18 Este 24 Este 0 -- -- 65
2019-04-28 07:00:00 13.9 14 Este 19 Sudeste 0 -- -- 59
2019-04-28 06:00:00 13.5 14 Este 17 Este 0 -- -- 62
2019-04-28 05:00:00 12.8 11 Nordeste 14 Nordeste 0 -- -- 66
2019-04-28 04:00:00 14.4 11 Este 14 Nordeste 0 -- -- 59
2019-04-28 03:00:00 14.1 9 Nordeste 11 Este 0 -- -- 59
2019-04-28 02:00:00 15.6 9 Este 15 Nordeste 0 -- -- 54
2019-04-28 01:00:00 13.6 14 Nordeste 17 Nordeste 0 -- -- 63
2019-04-28 00:00:00 13.5 16 Nordeste 17 Nordeste 0 -- -- 66
2019-04-27 23:00:00 14.2 13 Nordeste 16 Nordeste 0 -- -- 66
2019-04-27 22:00:00 15.5 13 Nordeste 16 Nordeste 0 -- -- 64
2019-04-27 21:00:00 18.6 14 Norte 23 Nordeste 0 -- -- 53
2019-04-27 20:00:00 21.5 18 Norte 26 Norte 0 -- -- 41
2019-04-27 19:00:00 22.4 18 Nordeste 31 Nordeste 0 -- -- 37
2019-04-27 18:00:00 22.8 19 Nordeste 30 Nordeste 0 -- -- 37
2019-04-27 17:00:00 22.8 18 Nordeste 33 Nordeste 0 -- -- 35
2019-04-27 16:00:00 22 19 Nordeste 32 Nordeste 0 -- -- 41
2019-04-27 15:00:00 21.2 14 Nordeste 33 Nordeste 0 -- -- 39
2019-04-27 14:00:00 20.4 16 Nordeste 28 Este 0 -- -- 43
2019-04-27 13:00:00 19.5 16 Nordeste 29 Este 0 -- -- 44
2019-04-27 12:00:00 17.9 14 Nordeste 26 Nordeste 0 -- -- 48
2019-04-27 11:00:00 15.9 11 Este 25 Este 0 -- -- 54
2019-04-27 10:00:00 13.6 18 Este 24 Este 0 -- -- 63
2019-04-27 09:00:00 10.5 5 Este 9 Sudeste 0 -- -- 73
2019-04-27 08:00:00 8.5 6 Norte 7 Norte 0 -- -- 74
2019-04-27 07:00:00 8.1 0 Calma 5 Norte 0 -- -- 77
2019-04-27 06:00:00 8 0 Calma 12 Norte 0 -- -- 77
2019-04-27 05:00:00 8.2 9 Norte 16 Norte 0 -- -- 75
2019-04-27 04:00:00 8.4 13 Nordeste 15 Nordeste 0 -- -- 75
2019-04-27 03:00:00 8.6 12 Nordeste 14 Nordeste 0 -- -- 74
2019-04-27 02:00:00 8.8 11 Nordeste 14 Nordeste 0 -- -- 76
2019-04-27 01:00:00 9 12 Norte 17 Norte 0 -- -- 76
2019-04-27 00:00:00 10 12 Norte 15 Norte 0 -- -- 73
2019-04-26 23:00:00 10.7 11 Norte 12 Norte 0 -- -- 71
2019-04-26 22:00:00 11.5 9 Norte 14 Norte 0 -- -- 69
2019-04-26 21:00:00 13.8 10 Norte 21 Norte 0 -- -- 62
2019-04-26 20:00:00 15.8 18 Norte 24 Norte 0 -- -- 52
2019-04-26 19:00:00 16 17 Norte 27 Noroeste 0 -- -- 51
2019-04-26 18:00:00 15.9 12 Norte 26 Noroeste 0 -- -- 55
2019-04-26 17:00:00 15.9 13 Norte 28 Noroeste 0 -- -- 52
2019-04-26 16:00:00 15.3 16 Norte 27 Norte 0 -- -- 52
2019-04-26 15:00:00 14.4 14 Noroeste 28 Noroeste 0 -- -- 57
2019-04-26 14:00:00 13.7 15 Norte 29 Norte 0 -- -- 60
2019-04-26 13:00:00 12.9 16 Noroeste 29 Noroeste 0 -- -- 64
2019-04-26 12:00:00 12.1 19 Norte 26 Noroeste 0 -- -- 67
2019-04-26 11:00:00 10.4 17 Norte 31 Noroeste 0 -- -- 82
2019-04-26 10:00:00 8.1 14 Noroeste 20 Noroeste 0 -- -- 94
2019-04-26 09:00:00 6.2 5 Oeste 10 Oeste 0 -- -- 96
2019-04-26 08:00:00 4.8 6 Oeste 13 Oeste 0 -- -- 96
2019-04-26 07:00:00 4.8 10 Oeste 14 Oeste 0 -- -- 95
2019-04-26 06:00:00 4.7 7 Oeste 14 Oeste 0 -- -- 94
2019-04-26 05:00:00 5.1 10 Oeste 13 Oeste 0 -- -- 93
2019-04-26 04:00:00 5.4 10 Oeste 13 Oeste 0 -- -- 91
2019-04-26 03:00:00 5.8 5 Noroeste 21 Noroeste 0 -- -- 88
2019-04-26 02:00:00 6.1 14 Noroeste 21 Noroeste 0 -- -- 87
2019-04-26 01:00:00 6.5 16 Noroeste 20 Noroeste 0 -- -- 86
2019-04-26 00:00:00 7.7 12 Oeste 15 Oeste 0 -- -- 81
2019-04-25 23:00:00 8.4 13 Oeste 18 Oeste 0 -- -- 78
2019-04-25 22:00:00 10.4 15 Oeste 35 Oeste 0 -- -- 73
2019-04-25 21:00:00 11.3 31 Oeste 37 Oeste 0 -- -- 65
2019-04-25 20:00:00 12.4 30 Oeste 43 Oeste 0 -- -- 63
2019-04-25 19:00:00 13 33 Oeste 52 Oeste 0 -- -- 58
2019-04-25 18:00:00 13.1 33 Oeste 48 Oeste 0 -- -- 61
2019-04-25 17:00:00 13.6 37 Oeste 49 Oeste 0 -- -- 62
2019-04-25 16:00:00 14.2 42 Oeste 57 Sudoeste 0 -- -- 62
2019-04-25 15:00:00 12.3 31 Oeste 53 Oeste 0 -- -- 76
2019-04-25 14:00:00 12.5 32 Oeste 45 Sudoeste 0 -- -- 70
2019-04-25 13:00:00 11.8 30 Oeste 44 Oeste 0 -- -- 71
2019-04-25 12:00:00 10.6 27 Oeste 42 Sudoeste 0 -- -- 84
2019-04-25 11:00:00 9.1 30 Oeste 46 Oeste 0.2 -- -- 85
2019-04-25 10:00:00 9.5 24 Oeste 43 Oeste 0 -- -- 86
2019-04-25 09:00:00 8.7 25 Oeste 34 Oeste 0 -- -- 92
2019-04-25 08:00:00 8.1 26 Oeste 39 Sudoeste 0 -- -- 92
2019-04-25 07:00:00 8.3 25 Oeste 40 Oeste 0 -- -- 93
2019-04-25 06:00:00 8.9 31 Oeste 46 Sudoeste 0 -- -- 93
2019-04-25 05:00:00 9 36 Sudoeste 45 Sudoeste 0 -- -- 95
2019-04-25 04:00:00 9.2 27 Sudoeste 37 Sudoeste 0 -- -- 94
2019-04-25 03:00:00 9.3 26 Sudoeste 39 Sudoeste 0 -- -- 93
2019-04-25 02:00:00 9.7 34 Sudoeste 43 Oeste 0 -- -- 89
2019-04-25 01:00:00 10.7 35 Oeste 57 Sudoeste 2.2 -- -- 95
2019-04-25 00:00:00 12.4 41 Sudoeste 61 Sudoeste 0 -- -- 90
2019-04-24 23:00:00 12.4 41 Sudoeste 58 Sudoeste 0 -- -- 88
2019-04-24 22:00:00 12.4 36 Sudoeste 53 Sudoeste 0 -- -- 87
2019-04-24 21:00:00 12.6 34 Sudoeste 54 Sudoeste 0 -- -- 87
2019-04-24 20:00:00 13 38 Sudoeste 54 Sudoeste 0 -- -- 87
2019-04-24 19:00:00 13.4 42 Sudoeste 60 Sudoeste 0.8 -- -- 86
2019-04-24 18:00:00 12.5 31 Sudoeste 63 Sudoeste 3.2 -- -- 93
2019-04-24 17:00:00 13.5 47 Sudoeste 63 Sudoeste 0.2 -- -- 87
2019-04-24 16:00:00 14.2 41 Sudoeste 64 Sudoeste 0.2 -- -- 85
2019-04-24 15:00:00 13.1 37 Sur 60 Sur 0.2 -- -- 89
2019-04-24 14:00:00 13.3 42 Sur 60 Sudoeste 0.2 -- -- 84
2019-04-24 13:00:00 13 46 Sur 58 Sur 0 -- -- 84
2019-04-24 12:00:00 11.1 41 Sur 58 Sur 0 -- -- 89
2019-04-24 11:00:00 10.7 40 Sur 55 Sur 0 -- -- 92
2019-04-24 10:00:00 9 42 Sur 54 Sur 0.2 -- -- 92
2019-04-24 09:00:00 8.8 35 Sur 56 Sudoeste 0 -- -- 89
2019-04-24 08:00:00 8.3 41 Sudoeste 55 Sur 0 -- -- 85
2019-04-24 07:00:00 7.8 40 Sur 58 Sudoeste 0 -- -- 85
2019-04-24 06:00:00 7.1 30 Sur 42 Sur 0 -- -- 87
2019-04-24 05:00:00 6.3 25 Sudoeste 33 Sudoeste 0 -- -- 89
2019-04-24 04:00:00 6.1 20 Sur 27 Sur 0 -- -- 89
2019-04-24 03:00:00 5.8 21 Sudoeste 26 Sudoeste 0 -- -- 90
2019-04-24 02:00:00 5 19 Sudoeste 23 Sudoeste 0 -- -- 91
2019-04-24 01:00:00 4.7 16 Sudoeste 19 Sudoeste 0 -- -- 91
2019-04-24 00:00:00 5.3 10 Sudoeste 21 Sudoeste 0 -- -- 88
2019-04-23 23:00:00 5.7 16 Sudoeste 31 Sudoeste 0 -- -- 89
2019-04-23 22:00:00 4.9 7 Sur 12 Sur 0.2 -- -- 93
2019-04-23 21:00:00 5.2 9 Oeste 54 Oeste 0.6 -- -- 91
2019-04-23 20:00:00 7.3 18 Oeste 64 Oeste 0 -- -- 82
2019-04-23 19:00:00 10.6 33 Sudoeste 53 Oeste 0 -- -- 62
2019-04-23 18:00:00 10.9 34 Oeste 50 Oeste 0 -- -- 62
2019-04-23 17:00:00 10.5 37 Sudoeste 50 Sudoeste 0 -- -- 68
2019-04-23 16:00:00 7.4 29 Sudoeste 58 Oeste 0 -- -- 82
2019-04-23 15:00:00 9.4 33 Oeste 46 Oeste 0.2 -- -- 70
2019-04-23 14:00:00 8.3 26 Oeste 60 Sudoeste 0 -- -- 83
2019-04-23 13:00:00 8.9 28 Oeste 46 Sudoeste 0 -- -- 79
2019-04-23 12:00:00 6.6 30 Oeste 52 Oeste 0.4 -- -- 86
2019-04-23 11:00:00 7.5 24 Oeste 40 Oeste 0.2 -- -- 85
2019-04-23 10:00:00 7.1 28 Oeste 40 Oeste 0 -- -- 86
2019-04-23 09:00:00 6.2 21 Oeste 33 Oeste 0 -- -- 94
2019-04-23 08:00:00 6.1 22 Oeste 32 Oeste 0 -- -- 93
2019-04-23 07:00:00 6.6 25 Oeste 36 Oeste 0.2 -- -- 95
2019-04-23 06:00:00 7 20 Oeste 32 Oeste 1 -- -- 95
2019-04-23 05:00:00 7.4 25 Oeste 46 Oeste 2.8 -- -- 95
2019-04-23 04:00:00 9.7 22 Sur 39 Sur 0.4 -- -- 91
2019-04-23 03:00:00 10.5 28 Sur 44 Sur 0 -- -- 82
2019-04-23 02:00:00 11 27 Sudoeste 33 Sudoeste 0 -- -- 82
2019-04-23 01:00:00 11.2 19 Sudoeste 32 Sudoeste 0 -- -- 84
2019-04-23 00:00:00 11.5 19 Sudoeste 29 Oeste 0 -- -- 85